createdAt,value
2023-04-14T00:00:42.485Z,10.00
2023-04-14T00:03:09.672Z,10.10
2023-04-14T00:05:36.716Z,10.10
2023-04-14T00:08:03.660Z,10.10
2023-04-14T00:10:30.668Z,10.00
2023-04-14T00:12:57.585Z,10.10
2023-04-14T00:15:24.514Z,10.10
2023-04-14T00:17:51.500Z,10.10
2023-04-14T00:20:18.508Z,10.10
2023-04-14T00:22:45.408Z,10.30
2023-04-14T00:25:12.315Z,10.10
2023-04-14T00:27:39.157Z,10.20
2023-04-14T00:30:15.452Z,10.20
2023-04-14T00:32:42.358Z,10.10
2023-04-14T00:35:09.394Z,10.30
2023-04-14T00:37:36.266Z,10.20
2023-04-14T00:40:03.338Z,10.20
2023-04-14T00:42:30.197Z,10.20
2023-04-14T00:44:57.071Z,10.20
2023-04-14T00:47:23.926Z,10.20
2023-04-14T00:49:51.295Z,10.40
2023-04-14T00:52:19.019Z,10.20
2023-04-14T00:54:45.882Z,10.20
2023-04-14T00:57:12.852Z,10.20
2023-04-14T00:59:39.767Z,10.30
2023-04-14T01:02:06.829Z,10.20
2023-04-14T01:04:49.244Z,10.20
2023-04-14T01:07:21.290Z,10.20
2023-04-14T01:09:48.450Z,10.20
2023-04-14T01:12:30.521Z,10.20
2023-04-14T01:15:18.150Z,10.10
2023-04-14T01:17:53.152Z,10.10
2023-04-14T01:20:37.588Z,10.10
2023-04-14T01:23:09.381Z,10.10
2023-04-14T01:25:57.741Z,10.10
2023-04-14T01:28:38.544Z,10.20
2023-04-14T01:31:18.780Z,10.00
2023-04-14T01:33:52.043Z,10.00
2023-04-14T01:36:27.190Z,10.20
2023-04-14T01:38:55.954Z,10.20
2023-04-14T01:41:24.800Z,10.20
2023-04-14T01:43:55.451Z,10.00
2023-04-14T01:46:22.381Z,10.10
2023-04-14T01:48:50.301Z,10.00
2023-04-14T01:51:22.017Z,10.00
2023-04-14T01:53:51.010Z,9.90
2023-04-14T01:56:18.866Z,9.90
2023-04-14T01:58:48.260Z,9.90
2023-04-14T02:01:16.992Z,9.80
2023-04-14T02:03:44.889Z,9.80
2023-04-14T02:06:13.501Z,9.70
2023-04-14T02:08:42.196Z,9.70
2023-04-14T02:11:11.224Z,9.70
2023-04-14T02:13:41.205Z,9.50
2023-04-14T02:16:10.958Z,9.40
2023-04-14T02:18:40.424Z,9.60
2023-04-14T02:21:09.822Z,9.30
2023-04-14T02:23:38.331Z,9.20
2023-04-14T02:26:11.715Z,9.40
2023-04-14T02:28:46.210Z,9.10
2023-04-14T02:31:16.656Z,9.00
2023-04-14T02:33:45.648Z,9.00
2023-04-14T02:36:22.563Z,9.10
2023-04-14T02:38:57.862Z,9.10
2023-04-14T02:41:30.596Z,8.80
2023-04-14T02:44:27.684Z,8.80
2023-04-14T02:47:10.499Z,8.70
2023-04-14T02:49:42.583Z,8.70
2023-04-14T02:52:15.389Z,8.70
2023-04-14T02:54:43.462Z,8.70
2023-04-14T02:57:11.152Z,8.60
2023-04-14T02:59:40.094Z,8.60
2023-04-14T03:02:09.276Z,8.70
2023-04-14T03:04:38.904Z,8.60
2023-04-14T03:07:07.581Z,8.70
2023-04-14T03:09:34.974Z,9.00
2023-04-14T03:12:04.401Z,8.70
2023-04-14T03:14:32.201Z,8.70
2023-04-14T03:16:59.764Z,8.80
2023-04-14T03:19:28.065Z,8.70
2023-04-14T03:21:56.407Z,8.80
2023-04-14T03:24:30.750Z,8.70
2023-04-14T03:27:02.858Z,8.70
2023-04-14T03:29:39.887Z,8.70
2023-04-14T03:32:08.450Z,8.60
2023-04-14T03:34:40.889Z,8.50
2023-04-14T03:37:09.332Z,8.50
2023-04-14T03:39:40.486Z,8.50
2023-04-14T03:42:13.672Z,8.20
2023-04-14T03:44:46.248Z,8.40
2023-04-14T03:47:14.511Z,8.30
2023-04-14T03:49:46.792Z,8.20
2023-04-14T03:52:15.963Z,8.30
2023-04-14T03:54:45.570Z,8.20
2023-04-14T03:57:17.520Z,8.20
2023-04-14T03:59:46.452Z,8.10
2023-04-14T04:02:14.093Z,8.10
2023-04-14T04:04:42.848Z,8.10
2023-04-14T04:07:13.187Z,8.10
2023-04-14T04:09:41.240Z,8.00
2023-04-14T04:12:09.407Z,8.00
2023-04-14T04:14:40.218Z,8.00
2023-04-14T04:17:09.023Z,8.10
2023-04-14T04:19:37.416Z,7.90
2023-04-14T04:22:05.456Z,7.90
2023-04-14T04:24:38.124Z,7.90
2023-04-14T04:27:08.147Z,7.90
2023-04-14T04:29:41.733Z,7.90
2023-04-14T04:32:08.731Z,7.90
2023-04-14T04:34:36.504Z,7.90
2023-04-14T04:37:03.807Z,8.10
2023-04-14T04:39:30.976Z,7.80
2023-04-14T04:42:05.459Z,7.90
2023-04-14T04:44:33.732Z,7.70
2023-04-14T04:47:00.874Z,7.90
2023-04-14T04:49:28.082Z,7.70
2023-04-14T04:51:56.494Z,7.70
2023-04-14T04:54:23.368Z,7.70
2023-04-14T04:56:50.436Z,7.70
2023-04-14T04:59:17.395Z,7.80
2023-04-14T05:01:44.295Z,7.90
2023-04-14T05:04:11.756Z,8.10
2023-04-14T05:06:41.328Z,8.20
2023-04-14T05:09:08.213Z,8.00
2023-04-14T05:11:35.618Z,8.10
2023-04-14T05:14:03.045Z,8.20
2023-04-14T05:16:30.051Z,8.20
2023-04-14T05:18:56.962Z,8.60
2023-04-14T05:21:23.979Z,8.30
2023-04-14T05:23:51.031Z,8.40
2023-04-14T05:28:47.779Z,8.80
2023-04-14T05:31:14.658Z,8.50
2023-04-14T05:33:41.576Z,8.60
2023-04-14T05:36:08.823Z,8.60
2023-04-14T05:38:41.700Z,8.70
2023-04-14T05:41:09.028Z,8.90
2023-04-14T05:43:37.028Z,9.00
2023-04-14T05:46:04.294Z,8.90
2023-04-14T05:48:33.176Z,9.20
2023-04-14T05:51:00.354Z,9.00
2023-04-14T05:53:27.833Z,9.20
2023-04-14T05:55:54.785Z,9.10
2023-04-14T05:58:21.720Z,9.20
2023-04-14T06:00:49.234Z,9.40
2023-04-14T06:03:17.028Z,9.50
2023-04-14T06:05:44.131Z,9.90
2023-04-14T06:08:11.076Z,10.00
2023-04-14T06:10:38.055Z,10.10
2023-04-14T06:13:05.052Z,10.10
2023-04-14T06:15:32.066Z,10.10
2023-04-14T06:17:59.134Z,10.30
2023-04-14T06:20:26.125Z,10.50
2023-04-14T06:22:53.073Z,10.50
2023-04-14T06:25:22.500Z,10.70
2023-04-14T06:27:49.460Z,11.00
2023-04-14T06:30:16.914Z,10.80
2023-04-14T06:32:44.047Z,10.80
2023-04-14T06:35:18.981Z,11.10
2023-04-14T06:37:52.981Z,10.90
2023-04-14T06:40:19.924Z,11.10
2023-04-14T06:42:46.843Z,11.20
2023-04-14T06:45:13.915Z,11.40
2023-04-14T06:47:41.015Z,11.50
2023-04-14T06:50:08.236Z,11.60
2023-04-14T06:52:35.349Z,11.70
2023-04-14T06:55:02.238Z,11.90
2023-04-14T06:57:29.200Z,12.10
2023-04-14T06:59:56.567Z,12.10
2023-04-14T07:02:23.590Z,12.20
2023-04-14T07:04:50.551Z,12.30
2023-04-14T07:07:18.013Z,12.50
2023-04-14T07:09:45.154Z,12.90
2023-04-14T07:12:16.232Z,12.80
2023-04-14T07:14:43.340Z,13.00
2023-04-14T07:17:10.430Z,13.10
2023-04-14T07:19:37.718Z,13.40
2023-04-14T07:22:08.978Z,13.50
2023-04-14T07:24:36.167Z,13.60
2023-04-14T07:27:03.283Z,13.70
2023-04-14T07:29:30.277Z,13.80
2023-04-14T07:31:57.429Z,13.90
2023-04-14T07:34:24.431Z,13.90
2023-04-14T07:36:51.455Z,14.00
2023-04-14T07:39:22.961Z,14.00
2023-04-14T07:41:50.042Z,14.00
2023-04-14T07:44:17.002Z,14.30
2023-04-14T07:46:44.233Z,14.10
2023-04-14T07:49:11.285Z,14.30
2023-04-14T07:51:38.339Z,14.10
2023-04-14T07:54:06.255Z,14.10
2023-04-14T07:56:33.392Z,14.10
2023-04-14T07:59:00.547Z,14.10
2023-04-14T08:01:27.707Z,14.20
2023-04-14T08:03:54.908Z,14.30
2023-04-14T08:06:22.052Z,14.30
2023-04-14T08:08:48.983Z,14.60
2023-04-14T08:11:16.140Z,14.30
2023-04-14T08:13:43.680Z,14.40
2023-04-14T08:16:11.169Z,14.50
2023-04-14T08:18:40.214Z,14.60
2023-04-14T08:21:07.488Z,14.70
2023-04-14T08:23:34.588Z,15.00
2023-04-14T08:26:01.827Z,14.90
2023-04-14T08:28:29.454Z,15.00
2023-04-14T08:30:56.514Z,14.90
2023-04-14T08:33:23.366Z,14.90
2023-04-14T08:36:00.151Z,14.90
2023-04-14T08:38:28.836Z,15.00
2023-04-14T08:40:57.085Z,15.00
2023-04-14T08:43:24.213Z,15.10
2023-04-14T08:45:52.449Z,15.20
2023-04-14T08:48:21.308Z,15.30
2023-04-14T08:50:59.463Z,15.50
2023-04-14T08:53:27.569Z,15.70
2023-04-14T08:55:57.535Z,15.60
2023-04-14T08:58:25.652Z,15.60
2023-04-14T09:00:53.413Z,15.70
2023-04-14T09:03:21.278Z,15.70
2023-04-14T09:05:48.424Z,15.80
2023-04-14T09:08:16.574Z,15.90
2023-04-14T09:10:43.748Z,16.10
2023-04-14T09:13:12.711Z,16.30
2023-04-14T09:15:39.781Z,16.40
2023-04-14T09:18:07.088Z,16.50
2023-04-14T09:20:40.261Z,16.60
2023-04-14T09:23:12.278Z,16.90
2023-04-14T09:25:40.709Z,16.60
2023-04-14T09:28:08.022Z,16.50
2023-04-14T09:30:35.068Z,16.40
2023-04-14T09:33:06.805Z,16.50
2023-04-14T09:35:48.628Z,16.70
2023-04-14T09:38:30.691Z,16.70
2023-04-14T09:40:57.717Z,16.70
2023-04-14T09:43:27.266Z,16.70
2023-04-14T09:45:54.849Z,16.40
2023-04-14T09:48:22.265Z,16.30
2023-04-14T09:51:07.242Z,16.10
2023-04-14T09:53:35.536Z,16.00
2023-04-14T09:56:05.701Z,15.90
2023-04-14T09:58:40.992Z,15.80
2023-04-14T10:01:21.307Z,15.70
2023-04-14T10:03:49.313Z,15.90
2023-04-14T10:06:24.085Z,15.80
2023-04-14T10:08:55.845Z,15.70
2023-04-14T10:11:32.640Z,15.70
2023-04-14T10:14:04.842Z,15.70
2023-04-14T10:16:32.866Z,15.80
2023-04-14T10:19:00.657Z,15.80
2023-04-14T10:21:28.121Z,15.70
2023-04-14T10:23:58.553Z,15.80
2023-04-14T10:26:26.470Z,15.90
2023-04-14T10:28:55.516Z,15.90
2023-04-14T10:31:26.594Z,15.90
2023-04-14T10:33:54.097Z,15.90
2023-04-14T10:36:28.837Z,15.90
2023-04-14T10:39:03.075Z,15.80
2023-04-14T10:41:48.352Z,15.80
2023-04-14T10:44:24.384Z,15.70
2023-04-14T10:46:52.225Z,15.70
2023-04-14T10:49:19.335Z,15.90
2023-04-14T10:51:49.758Z,16.10
2023-04-14T10:54:19.932Z,16.30
2023-04-14T10:57:17.715Z,16.50
2023-04-14T10:59:48.486Z,16.70
2023-04-14T11:02:35.346Z,16.50
2023-04-14T11:05:05.701Z,16.60
2023-04-14T11:07:38.441Z,16.80
2023-04-14T11:10:17.760Z,16.80
2023-04-14T11:12:46.289Z,16.90
2023-04-14T11:15:13.735Z,16.80
2023-04-14T11:17:43.381Z,16.70
2023-04-14T11:20:18.406Z,16.80
2023-04-14T11:22:46.945Z,16.80
2023-04-14T11:25:16.802Z,16.80
2023-04-14T11:27:44.689Z,16.70
2023-04-14T11:30:17.518Z,16.60
2023-04-14T11:32:50.265Z,16.10
2023-04-14T11:35:18.251Z,16.00
2023-04-14T11:37:48.722Z,15.70
2023-04-14T11:40:16.248Z,15.80
2023-04-14T11:42:51.067Z,15.90
2023-04-14T11:45:18.278Z,15.90
2023-04-14T11:48:05.998Z,15.90
2023-04-14T11:50:38.765Z,15.90
2023-04-14T11:53:10.261Z,16.00
2023-04-14T11:55:37.749Z,16.00
2023-04-14T11:58:04.913Z,16.10
2023-04-14T12:00:31.919Z,16.10
2023-04-14T12:03:03.548Z,16.30
2023-04-14T12:05:33.864Z,16.40
2023-04-14T12:08:07.526Z,16.40
2023-04-14T12:10:38.610Z,16.40
2023-04-14T12:13:07.501Z,16.40
2023-04-14T12:15:39.450Z,16.50
2023-04-14T12:18:09.669Z,16.30
2023-04-14T12:20:46.644Z,16.20
2023-04-14T12:23:13.742Z,16.20
2023-04-14T12:25:41.000Z,16.20
2023-04-14T12:28:08.349Z,16.10
2023-04-14T12:30:36.657Z,16.00
2023-04-14T12:33:12.210Z,15.90
2023-04-14T12:35:40.558Z,16.00
2023-04-14T12:38:14.689Z,16.00
2023-04-14T12:40:45.911Z,16.00
2023-04-14T12:43:13.824Z,15.90
2023-04-14T12:45:48.919Z,15.70
2023-04-14T12:48:17.655Z,15.70
2023-04-14T12:50:44.925Z,15.80
2023-04-14T12:53:30.510Z,16.00
2023-04-14T12:56:13.586Z,16.10
2023-04-14T12:58:42.803Z,16.10
2023-04-14T13:01:13.787Z,16.00
2023-04-14T13:03:41.791Z,15.90
2023-04-14T13:06:11.281Z,15.80
2023-04-14T13:08:42.621Z,15.80
2023-04-14T13:11:09.522Z,15.60
2023-04-14T13:13:36.386Z,15.50
2023-04-14T13:16:13.082Z,15.60
2023-04-14T13:18:46.888Z,15.80
2023-04-14T13:21:14.026Z,16.00
2023-04-14T13:23:41.388Z,15.90
2023-04-14T13:26:08.827Z,15.80
2023-04-14T13:28:36.916Z,15.80
2023-04-14T13:31:04.060Z,15.70
2023-04-14T13:33:32.360Z,15.50
2023-04-14T13:35:59.315Z,15.40
2023-04-14T13:38:26.310Z,15.40
2023-04-14T13:40:53.355Z,15.50
2023-04-14T13:43:20.411Z,15.70
2023-04-14T13:45:47.405Z,15.70
2023-04-14T13:48:14.655Z,15.60
2023-04-14T13:50:42.185Z,15.60
2023-04-14T13:53:09.370Z,15.70
2023-04-14T13:55:36.562Z,15.80
2023-04-14T13:58:03.937Z,16.00
2023-04-14T14:00:30.948Z,16.00
2023-04-14T14:02:58.051Z,16.10
2023-04-14T14:05:25.602Z,16.30
2023-04-14T14:07:52.633Z,16.30
2023-04-14T14:10:19.618Z,16.30
2023-04-14T14:12:46.527Z,16.30
2023-04-14T14:15:13.653Z,16.20
2023-04-14T14:17:40.883Z,16.00
2023-04-14T14:20:09.565Z,16.10
2023-04-14T14:22:36.812Z,16.00
2023-04-14T14:25:17.422Z,15.80
2023-04-14T14:27:46.063Z,15.70
2023-04-14T14:30:13.277Z,15.50
2023-04-14T14:32:40.289Z,15.50
2023-04-14T14:35:07.503Z,15.60
2023-04-14T14:37:34.474Z,15.80
2023-04-14T14:40:01.361Z,15.80
2023-04-14T14:42:28.353Z,15.80
2023-04-14T14:44:55.350Z,15.80
2023-04-14T14:47:22.573Z,15.90
2023-04-14T14:49:59.665Z,15.90
2023-04-14T14:52:29.792Z,15.90
2023-04-14T14:54:56.893Z,15.80
2023-04-14T14:57:26.283Z,15.90
2023-04-14T14:59:54.064Z,15.90
2023-04-14T15:02:22.502Z,16.00
2023-04-14T15:04:49.903Z,16.20
2023-04-14T15:07:17.476Z,16.20
2023-04-14T15:09:46.792Z,16.10
2023-04-14T15:12:13.742Z,16.00
2023-04-14T15:14:40.778Z,15.80
2023-04-14T15:17:08.256Z,15.70
2023-04-14T15:19:38.126Z,15.80
2023-04-14T15:22:05.252Z,15.80
2023-04-14T15:24:32.512Z,15.70
2023-04-14T15:26:59.477Z,15.60
2023-04-14T15:29:26.832Z,15.60
2023-04-14T15:31:53.944Z,15.40
2023-04-14T15:34:21.435Z,15.40
2023-04-14T15:36:48.619Z,15.50
2023-04-14T15:39:15.813Z,15.30
2023-04-14T15:41:43.482Z,15.30
2023-04-14T15:44:10.391Z,15.30
2023-04-14T15:46:37.287Z,15.30
2023-04-14T15:49:04.264Z,15.10
2023-04-14T15:51:31.263Z,15.10
2023-04-14T15:53:58.208Z,15.20
2023-04-14T15:56:25.914Z,15.20
2023-04-14T15:58:52.802Z,15.20
2023-04-14T16:01:19.878Z,15.40
2023-04-14T16:03:46.846Z,15.50
2023-04-14T16:06:19.342Z,15.50
2023-04-14T16:08:48.647Z,15.40
2023-04-14T16:11:18.434Z,15.40
2023-04-14T16:13:49.051Z,15.10
2023-04-14T16:16:17.172Z,15.10
2023-04-14T16:27:52.502Z,14.60
2023-04-14T16:30:20.162Z,14.50
2023-04-14T16:32:47.314Z,14.30
2023-04-14T16:47:17.154Z,13.90
2023-04-14T16:49:46.602Z,13.80
2023-04-14T16:52:14.212Z,13.70
2023-04-14T16:54:41.813Z,13.50
2023-04-14T16:57:09.394Z,13.30
2023-04-14T16:59:36.818Z,13.10
2023-04-14T17:02:05.984Z,13.00
2023-04-14T17:04:33.493Z,12.80
2023-04-14T17:07:00.887Z,12.80
2023-04-14T17:09:28.155Z,12.50
2023-04-14T17:11:55.366Z,12.40
2023-04-14T17:14:23.325Z,12.20
2023-04-14T17:16:50.629Z,12.10
2023-04-14T17:19:17.670Z,12.10
2023-04-14T17:21:47.339Z,12.00
2023-04-14T17:24:14.785Z,12.00
2023-04-14T17:26:42.059Z,11.80
2023-04-14T17:29:09.726Z,12.00
2023-04-14T17:31:37.263Z,11.90
2023-04-14T17:34:07.812Z,11.90
2023-04-14T17:36:35.061Z,11.90
2023-04-14T17:39:02.500Z,11.90
2023-04-14T17:41:30.268Z,11.70
2023-04-14T17:43:57.177Z,11.90
2023-04-14T17:46:33.577Z,11.90
2023-04-14T17:49:04.344Z,12.10
2023-04-14T17:51:32.187Z,11.90
2023-04-14T17:53:59.635Z,12.10
2023-04-14T17:56:27.010Z,11.90
2023-04-14T17:58:54.236Z,11.90
2023-04-14T18:01:22.141Z,11.80
2023-04-14T18:03:50.294Z,11.80
2023-04-14T18:06:17.456Z,11.70
2023-04-14T18:08:44.452Z,11.70
2023-04-14T18:11:12.739Z,11.70
2023-04-14T18:13:39.901Z,11.60
2023-04-14T18:16:07.792Z,11.60
2023-04-14T18:18:36.364Z,11.60
2023-04-14T18:21:03.397Z,11.30
2023-04-14T18:23:31.415Z,11.50
2023-04-14T18:28:39.149Z,11.50
2023-04-14T18:31:13.994Z,11.50
2023-04-14T18:33:45.775Z,11.40
2023-04-14T18:36:26.793Z,11.40
2023-04-14T18:38:54.106Z,11.30
2023-04-14T18:44:05.739Z,11.30
2023-04-14T18:46:37.760Z,11.30
2023-04-14T18:49:07.240Z,11.30
2023-04-14T18:51:35.305Z,11.10
2023-04-14T18:54:02.490Z,11.10
2023-04-14T18:56:31.914Z,11.10
2023-04-14T18:59:01.353Z,11.00
2023-04-14T19:01:31.366Z,11.10
2023-04-14T19:03:58.944Z,10.90
2023-04-14T19:12:30.864Z,10.80
2023-04-14T19:15:00.429Z,10.70
2023-04-14T19:17:28.733Z,10.70
2023-04-14T19:19:58.619Z,10.60
2023-04-14T19:22:25.953Z,10.70
2023-04-14T19:24:56.096Z,10.50
2023-04-14T19:33:25.071Z,10.40
2023-04-14T19:35:55.858Z,10.50
2023-04-14T19:38:29.662Z,10.30
2023-04-14T19:40:57.113Z,10.50
2023-04-14T19:49:32.492Z,10.40
2023-04-14T19:52:04.600Z,10.10
2023-04-14T19:54:34.630Z,10.10
2023-04-14T19:57:02.199Z,10.10
2023-04-14T19:59:30.532Z,10.10
2023-04-14T20:02:04.438Z,10.10
2023-04-14T20:04:36.451Z,10.10
2023-04-14T20:07:08.427Z,10.10
2023-04-14T20:09:38.450Z,10.10
2023-04-14T20:12:16.433Z,10.10
2023-04-14T20:14:45.281Z,10.10
2023-04-14T20:17:13.951Z,10.10
2023-04-14T20:19:41.408Z,10.10
2023-04-14T20:22:14.393Z,10.10
2023-04-14T20:24:41.815Z,10.10
2023-04-14T20:33:14.768Z,10.20
2023-04-14T20:35:44.122Z,10.20
2023-04-14T20:38:24.780Z,10.20
2023-04-14T20:40:53.805Z,10.20
2023-04-14T20:43:26.016Z,10.20
2023-04-14T20:45:54.033Z,10.40
2023-04-14T20:48:22.127Z,10.20
2023-04-14T20:50:50.419Z,10.20
2023-04-14T20:53:20.139Z,10.20
2023-04-14T20:55:57.370Z,10.10
2023-04-14T20:58:25.076Z,10.10
2023-04-14T21:00:58.228Z,10.10
2023-04-14T21:06:33.023Z,10.10
2023-04-14T21:09:00.684Z,10.00
2023-04-14T21:11:28.057Z,10.00
2023-04-14T21:15:36.895Z,10.10
2023-04-14T21:16:42.466Z,10.10
2023-04-14T21:19:09.671Z,10.10
2023-04-14T21:21:36.925Z,10.10
2023-04-14T21:24:04.262Z,10.20
2023-04-14T21:26:31.831Z,10.00
2023-04-14T21:28:58.819Z,10.00
2023-04-14T21:31:26.237Z,9.90
2023-04-14T21:33:53.236Z,10.10
2023-04-14T21:36:20.621Z,9.80
2023-04-14T21:38:48.439Z,9.80
2023-04-14T21:41:16.095Z,9.80
2023-04-14T21:46:59.624Z,9.80
2023-04-14T21:52:29.661Z,9.70
2023-04-14T21:55:04.511Z,9.60
2023-04-14T21:57:45.482Z,9.60
2023-04-14T22:00:20.407Z,9.60
2023-04-14T22:02:47.868Z,9.60
2023-04-14T22:05:15.398Z,9.60
2023-04-14T22:07:47.049Z,9.60
2023-04-14T22:10:17.629Z,9.40
2023-04-14T22:12:47.363Z,9.60
2023-04-14T22:15:36.077Z,9.60
2023-04-14T22:18:03.564Z,9.50
2023-04-14T22:20:31.211Z,9.50
2023-04-14T22:22:58.268Z,9.50
2023-04-14T22:25:28.431Z,9.50
2023-04-14T22:27:55.427Z,9.50
2023-04-14T22:30:22.767Z,9.60
2023-04-14T22:32:49.956Z,9.40
2023-04-14T22:35:17.057Z,9.50
2023-04-14T22:37:44.101Z,9.30
2023-04-14T22:40:11.203Z,9.30
2023-04-14T22:42:38.163Z,9.30
2023-04-14T22:45:06.484Z,9.50
2023-04-14T22:47:33.898Z,9.30
2023-04-14T22:50:02.188Z,9.40
2023-04-14T22:52:29.215Z,9.20
2023-04-14T22:54:56.555Z,9.50
2023-04-14T22:57:23.530Z,9.20
2023-04-14T22:59:50.572Z,9.50
2023-04-14T23:02:17.697Z,9.50
2023-04-14T23:04:45.008Z,9.30
2023-04-14T23:07:12.185Z,9.30
2023-04-14T23:09:39.219Z,9.30
2023-04-14T23:12:06.375Z,9.30
2023-04-14T23:14:33.395Z,9.30
2023-04-14T23:17:00.914Z,9.30
2023-04-14T23:19:28.185Z,9.30
2023-04-14T23:21:55.162Z,9.40
2023-04-14T23:24:23.477Z,9.40
2023-04-14T23:26:50.478Z,9.40
2023-04-14T23:29:17.378Z,9.10
2023-04-14T23:31:44.510Z,9.40
2023-04-14T23:34:11.531Z,9.30
2023-04-14T23:36:38.627Z,9.30
2023-04-14T23:39:05.806Z,9.30
2023-04-14T23:41:32.921Z,9.30
2023-04-14T23:44:00.170Z,9.30
2023-04-14T23:46:27.644Z,9.30
2023-04-14T23:48:54.674Z,9.30
2023-04-14T23:51:22.900Z,9.30
2023-04-14T23:53:50.731Z,9.30
2023-04-14T23:56:17.840Z,9.50
2023-04-14T23:58:44.906Z,9.40
